createdAt,value
2023-03-29T00:02:02.890Z,2.54
2023-03-29T00:04:29.812Z,2.49
2023-03-29T00:06:56.973Z,2.52
2023-03-29T00:09:26.560Z,2.54
2023-03-29T00:11:53.413Z,2.54
2023-03-29T00:14:20.240Z,2.53
2023-03-29T00:16:47.151Z,2.55
2023-03-29T00:19:13.962Z,2.55
2023-03-29T00:21:40.924Z,2.50
2023-03-29T00:24:07.864Z,2.47
2023-03-29T00:26:34.875Z,2.43
2023-03-29T00:29:01.825Z,2.28
2023-03-29T00:31:28.694Z,2.14
2023-03-29T00:33:55.874Z,2.15
2023-03-29T00:36:23.345Z,2.08
2023-03-29T00:38:50.038Z,2.04
2023-03-29T00:41:16.889Z,2.01
2023-03-29T00:43:59.870Z,1.98
2023-03-29T00:46:28.427Z,1.86
2023-03-29T00:49:02.304Z,1.77
2023-03-29T00:51:32.928Z,1.77
2023-03-29T00:54:03.494Z,1.78
2023-03-29T00:56:35.350Z,1.74
2023-03-29T00:59:23.777Z,1.66
2023-03-29T01:01:58.744Z,1.58
2023-03-29T01:04:47.682Z,1.54
2023-03-29T01:07:26.011Z,1.53
2023-03-29T01:10:04.632Z,1.52
2023-03-29T01:12:36.098Z,1.54
2023-03-29T01:15:10.013Z,1.57
2023-03-29T01:17:38.711Z,1.60
2023-03-29T01:20:14.384Z,1.67
2023-03-29T01:23:10.397Z,1.64
2023-03-29T01:26:04.553Z,1.59
2023-03-29T01:28:38.836Z,1.56
2023-03-29T01:31:11.224Z,1.54
2023-03-29T01:33:49.171Z,1.52
2023-03-29T01:36:21.219Z,1.52
2023-03-29T01:39:00.890Z,1.51
2023-03-29T01:41:40.602Z,1.40
2023-03-29T01:44:17.570Z,1.38
2023-03-29T01:46:52.433Z,1.45
2023-03-29T01:49:25.787Z,1.44
2023-03-29T01:52:03.488Z,1.39
2023-03-29T01:54:43.663Z,1.40
2023-03-29T01:57:12.328Z,1.44
2023-03-29T01:59:43.676Z,1.49
2023-03-29T02:02:14.822Z,1.46
2023-03-29T02:04:50.173Z,1.47
2023-03-29T02:07:21.529Z,1.48
2023-03-29T02:09:52.716Z,1.57
2023-03-29T02:12:20.879Z,1.56
2023-03-29T02:14:47.638Z,1.62
2023-03-29T02:17:26.323Z,1.62
2023-03-29T02:20:00.799Z,1.67
2023-03-29T02:22:37.613Z,1.79
2023-03-29T02:25:08.988Z,1.74
2023-03-29T02:27:38.108Z,1.74
2023-03-29T02:30:07.485Z,1.62
2023-03-29T02:32:48.918Z,1.64
2023-03-29T02:35:45.795Z,1.58
2023-03-29T02:38:14.772Z,1.47
2023-03-29T02:40:42.972Z,1.43
2023-03-29T02:43:11.783Z,1.34
2023-03-29T02:45:40.568Z,1.40
2023-03-29T02:48:12.555Z,1.37
2023-03-29T02:50:41.772Z,1.33
2023-03-29T02:53:17.177Z,1.32
2023-03-29T02:55:46.946Z,1.29
2023-03-29T02:58:15.595Z,1.27
2023-03-29T03:00:46.712Z,1.22
2023-03-29T03:03:15.667Z,1.29
2023-03-29T03:05:45.006Z,1.28
2023-03-29T03:08:11.851Z,1.30
2023-03-29T03:10:39.357Z,1.34
2023-03-29T03:13:06.721Z,1.27
2023-03-29T03:15:35.954Z,1.35
2023-03-29T03:18:03.853Z,1.28
2023-03-29T03:20:31.255Z,1.34
2023-03-29T03:22:58.557Z,1.27
2023-03-29T03:25:25.906Z,1.29
2023-03-29T03:27:53.212Z,1.33
2023-03-29T03:30:22.666Z,1.32
2023-03-29T03:32:58.219Z,1.26
2023-03-29T03:35:46.393Z,1.26
2023-03-29T03:38:15.402Z,1.22
2023-03-29T03:40:43.516Z,1.20
2023-03-29T03:43:10.464Z,1.25
2023-03-29T03:45:37.304Z,1.18
2023-03-29T03:48:11.805Z,1.27
2023-03-29T03:50:51.240Z,1.35
2023-03-29T03:53:18.897Z,1.44
2023-03-29T03:56:09.314Z,1.36
2023-03-29T03:58:51.770Z,1.42
2023-03-29T04:01:19.726Z,1.36
2023-03-29T04:03:58.081Z,1.35
2023-03-29T04:06:25.505Z,1.22
2023-03-29T04:09:13.072Z,1.24
2023-03-29T04:11:43.110Z,1.23
2023-03-29T04:14:11.229Z,1.32
2023-03-29T04:16:58.436Z,1.42
2023-03-29T04:19:43.813Z,1.44
2023-03-29T04:22:11.108Z,1.43
2023-03-29T04:24:38.101Z,1.42
2023-03-29T04:27:33.345Z,1.42
2023-03-29T04:30:05.152Z,1.34
2023-03-29T04:32:52.287Z,1.30
2023-03-29T04:35:19.325Z,1.22
2023-03-29T04:37:46.194Z,1.27
2023-03-29T04:40:15.522Z,1.22
2023-03-29T04:43:08.149Z,1.19
2023-03-29T04:45:37.350Z,1.18
2023-03-29T04:48:12.982Z,1.19
2023-03-29T04:50:46.814Z,1.19
2023-03-29T04:53:15.455Z,1.19
2023-03-29T04:55:43.775Z,1.21
2023-03-29T04:58:14.738Z,1.24
2023-03-29T05:00:43.076Z,1.19
2023-03-29T05:03:13.519Z,1.30
2023-03-29T05:05:50.730Z,1.27
2023-03-29T05:08:17.919Z,1.36
2023-03-29T05:11:10.517Z,1.38
2023-03-29T05:13:38.034Z,1.45
2023-03-29T05:16:06.875Z,1.44
2023-03-29T05:18:33.889Z,1.48
2023-03-29T05:21:01.065Z,1.47
2023-03-29T05:23:28.962Z,1.50
2023-03-29T05:26:15.482Z,1.49
2023-03-29T05:28:48.417Z,1.48
2023-03-29T05:31:17.070Z,1.51
2023-03-29T05:33:48.238Z,1.51
2023-03-29T05:36:17.552Z,1.50
2023-03-29T05:38:46.793Z,1.52
2023-03-29T05:41:15.932Z,1.61
2023-03-29T05:44:01.626Z,1.66
2023-03-29T05:46:29.726Z,1.71
2023-03-29T05:49:00.877Z,1.71
2023-03-29T05:51:45.799Z,1.85
2023-03-29T05:54:13.138Z,1.90
2023-03-29T05:56:39.935Z,1.95
2023-03-29T05:59:08.523Z,2.03
2023-03-29T06:01:35.907Z,2.11
2023-03-29T06:04:06.625Z,2.18
2023-03-29T06:06:41.719Z,2.27
2023-03-29T06:09:09.525Z,2.33
2023-03-29T06:11:40.835Z,2.42
2023-03-29T06:14:34.104Z,2.42
2023-03-29T06:17:14.759Z,2.55
2023-03-29T06:19:42.256Z,2.59
2023-03-29T06:22:09.048Z,2.61
2023-03-29T06:24:35.878Z,2.74
2023-03-29T06:27:09.114Z,2.82
2023-03-29T06:29:36.301Z,2.88
2023-03-29T06:32:03.375Z,3.00
2023-03-29T06:34:48.075Z,3.03
2023-03-29T06:37:33.000Z,3.12
2023-03-29T06:40:23.017Z,3.22
2023-03-29T06:42:51.142Z,3.28
2023-03-29T06:45:38.093Z,3.40
2023-03-29T06:48:10.757Z,3.48
2023-03-29T06:50:37.762Z,3.53
2023-03-29T06:53:13.427Z,3.63
2023-03-29T06:55:42.149Z,3.60
2023-03-29T06:58:29.165Z,3.84
2023-03-29T07:01:04.861Z,3.91
2023-03-29T07:03:46.686Z,3.98
2023-03-29T07:06:20.449Z,4.06
2023-03-29T07:08:52.347Z,4.01
2023-03-29T07:11:46.707Z,4.07
2023-03-29T07:14:21.974Z,4.06
2023-03-29T07:16:49.603Z,4.20
2023-03-29T07:19:30.342Z,4.21
2023-03-29T07:22:22.249Z,4.28
2023-03-29T07:24:54.339Z,4.38
2023-03-29T07:27:21.188Z,4.45
2023-03-29T07:29:50.071Z,4.49
2023-03-29T07:32:18.003Z,4.65
2023-03-29T07:34:44.774Z,4.82
2023-03-29T07:37:19.698Z,4.91
2023-03-29T07:39:47.374Z,4.91
2023-03-29T07:42:31.366Z,4.85
2023-03-29T07:44:58.664Z,4.88
2023-03-29T07:47:30.631Z,4.89
2023-03-29T07:49:59.293Z,4.91
2023-03-29T07:52:28.069Z,4.91
2023-03-29T07:54:56.150Z,4.91
2023-03-29T07:57:27.743Z,5.01
2023-03-29T07:59:57.043Z,5.04
2023-03-29T08:02:27.473Z,5.20
2023-03-29T08:04:58.953Z,5.21
2023-03-29T08:07:46.100Z,5.18
2023-03-29T08:10:27.870Z,5.28
2023-03-29T08:13:24.062Z,5.32
2023-03-29T08:16:14.801Z,5.39
2023-03-29T08:18:49.550Z,5.26
2023-03-29T08:21:17.317Z,5.27
2023-03-29T08:23:47.758Z,5.25
2023-03-29T08:26:36.449Z,5.25
2023-03-29T08:29:04.131Z,5.39
2023-03-29T08:31:30.873Z,5.43
2023-03-29T08:33:58.131Z,5.50
2023-03-29T08:36:43.669Z,5.54
2023-03-29T08:39:19.696Z,5.72
2023-03-29T08:42:06.719Z,5.71
2023-03-29T08:44:56.078Z,5.84
2023-03-29T08:47:26.859Z,5.95
2023-03-29T08:49:56.592Z,5.97
2023-03-29T08:52:43.256Z,6.04
2023-03-29T08:55:42.856Z,6.04
2023-03-29T08:58:32.726Z,6.13
2023-03-29T09:01:03.596Z,6.18
2023-03-29T09:03:45.396Z,6.29
2023-03-29T09:06:22.076Z,6.36
2023-03-29T09:08:52.675Z,6.47
2023-03-29T09:11:23.735Z,6.66
2023-03-29T09:13:54.164Z,6.84
2023-03-29T09:16:30.619Z,6.93
2023-03-29T09:19:15.649Z,7.07
2023-03-29T09:22:18.805Z,7.07
2023-03-29T09:25:10.823Z,7.14
2023-03-29T09:27:55.768Z,7.15
2023-03-29T09:30:41.692Z,7.21
2023-03-29T09:33:29.443Z,7.23
2023-03-29T09:36:40.655Z,7.26
2023-03-29T09:39:09.873Z,7.32
2023-03-29T09:41:44.911Z,7.32
2023-03-29T09:44:29.817Z,7.42
2023-03-29T09:47:32.610Z,7.56
2023-03-29T09:50:23.082Z,7.69
2023-03-29T09:52:54.588Z,7.83
2023-03-29T09:55:28.717Z,7.94
2023-03-29T09:58:13.737Z,8.03
2023-03-29T10:00:45.395Z,8.19
2023-03-29T10:03:24.553Z,8.27
2023-03-29T10:06:09.934Z,8.33
2023-03-29T10:08:46.264Z,8.36
2023-03-29T10:11:47.734Z,8.43
2023-03-29T10:14:21.305Z,8.37
2023-03-29T10:16:55.854Z,8.47
2023-03-29T10:19:32.973Z,8.46
2023-03-29T10:22:08.421Z,8.54
2023-03-29T10:24:35.203Z,8.67
2023-03-29T10:27:06.929Z,8.66
2023-03-29T10:29:40.240Z,8.71
2023-03-29T10:32:23.079Z,8.86
2023-03-29T10:34:52.162Z,9.04
2023-03-29T10:37:21.152Z,9.18
2023-03-29T10:39:48.988Z,9.27
2023-03-29T10:42:18.576Z,9.49
2023-03-29T10:44:58.183Z,9.59
2023-03-29T10:47:26.142Z,9.63
2023-03-29T10:49:56.832Z,9.52
2023-03-29T10:52:25.198Z,9.44
2023-03-29T10:54:54.617Z,9.31
2023-03-29T10:57:51.860Z,9.17
2023-03-29T11:00:29.046Z,9.22
2023-03-29T11:03:20.222Z,9.15
2023-03-29T11:05:52.525Z,9.19
2023-03-29T11:08:43.649Z,9.26
2023-03-29T11:11:20.024Z,9.20
2023-03-29T11:14:13.667Z,9.20
2023-03-29T11:17:15.884Z,9.32
2023-03-29T11:20:08.371Z,9.36
2023-03-29T11:22:52.373Z,9.34
2023-03-29T11:25:30.152Z,9.29
2023-03-29T11:28:15.725Z,9.38
2023-03-29T11:31:06.355Z,9.43
2023-03-29T11:33:42.279Z,9.37
2023-03-29T11:36:39.311Z,9.47
2023-03-29T11:39:12.194Z,9.71
2023-03-29T11:41:43.962Z,9.90
2023-03-29T11:44:34.219Z,9.96
2023-03-29T11:47:22.720Z,10.15
2023-03-29T11:50:28.111Z,10.07
2023-03-29T11:53:02.238Z,10.12
2023-03-29T11:55:33.849Z,9.97
2023-03-29T11:58:13.286Z,9.92
2023-03-29T12:00:58.339Z,10.21
2023-03-29T12:03:46.216Z,10.59
2023-03-29T12:07:01.753Z,10.70
2023-03-29T12:09:47.877Z,10.79
2023-03-29T12:12:53.146Z,10.78
2023-03-29T12:15:24.973Z,10.58
2023-03-29T12:18:17.950Z,10.52
2023-03-29T12:20:49.850Z,10.48
2023-03-29T12:23:18.005Z,10.49
2023-03-29T12:26:12.020Z,10.51
2023-03-29T12:28:57.344Z,10.58
2023-03-29T12:31:24.192Z,10.60
2023-03-29T12:34:14.194Z,10.51
2023-03-29T12:37:24.679Z,10.38
2023-03-29T12:40:19.203Z,10.37
2023-03-29T12:43:08.717Z,10.24
2023-03-29T12:45:58.200Z,10.19
2023-03-29T12:48:28.098Z,10.15
2023-03-29T12:51:02.818Z,10.14
2023-03-29T12:53:35.768Z,10.14
2023-03-29T12:56:04.049Z,10.12
2023-03-29T12:58:40.308Z,9.97
2023-03-29T13:01:24.961Z,9.99
2023-03-29T13:04:01.718Z,9.90
2023-03-29T13:06:56.351Z,9.84
2023-03-29T13:09:30.079Z,9.81
2023-03-29T13:12:13.056Z,9.79
2023-03-29T13:14:46.429Z,9.70
2023-03-29T13:17:26.005Z,9.75
2023-03-29T13:20:09.547Z,9.71
2023-03-29T13:22:59.217Z,9.60
2023-03-29T13:25:45.150Z,9.56
2023-03-29T13:28:19.971Z,9.52
2023-03-29T13:30:58.938Z,9.49
2023-03-29T13:33:34.647Z,9.41
2023-03-29T13:36:11.776Z,9.38
2023-03-29T13:38:54.339Z,9.44
2023-03-29T13:41:40.389Z,9.44
2023-03-29T13:44:24.995Z,9.39
2023-03-29T13:47:14.037Z,9.34
2023-03-29T13:49:44.592Z,9.27
2023-03-29T13:52:34.540Z,9.20
2023-03-29T13:55:04.324Z,9.17
2023-03-29T13:57:39.685Z,9.10
2023-03-29T14:00:20.226Z,9.00
2023-03-29T14:02:58.471Z,9.00
2023-03-29T14:05:41.897Z,8.93
2023-03-29T14:08:36.005Z,8.93
2023-03-29T14:11:06.974Z,9.01
2023-03-29T14:13:34.892Z,8.89
2023-03-29T14:16:06.945Z,8.95
2023-03-29T14:18:37.955Z,8.81
2023-03-29T14:21:05.732Z,8.84
2023-03-29T14:23:35.236Z,8.83
2023-03-29T14:26:16.648Z,8.81
2023-03-29T14:28:48.711Z,8.83
2023-03-29T14:31:21.841Z,8.80
2023-03-29T14:33:57.491Z,8.75
2023-03-29T14:36:27.190Z,8.74
2023-03-29T14:38:59.530Z,8.76
2023-03-29T14:41:31.293Z,8.70
2023-03-29T14:43:59.317Z,8.71
2023-03-29T14:46:27.337Z,8.61
2023-03-29T14:48:55.876Z,8.55
2023-03-29T14:51:28.590Z,8.51
2023-03-29T14:53:57.537Z,8.49
2023-03-29T14:56:26.357Z,8.44
2023-03-29T14:58:56.960Z,8.43
2023-03-29T15:01:26.197Z,8.35
2023-03-29T15:04:11.053Z,8.37
2023-03-29T15:06:42.493Z,8.35
2023-03-29T15:09:19.909Z,8.28
2023-03-29T15:11:52.680Z,8.29
2023-03-29T15:14:21.134Z,8.29
2023-03-29T15:16:50.181Z,8.25
2023-03-29T15:19:21.025Z,8.21
2023-03-29T15:21:49.907Z,8.21
2023-03-29T15:24:28.548Z,8.13
2023-03-29T15:27:17.046Z,8.13
2023-03-29T15:29:46.935Z,8.10
2023-03-29T15:32:25.693Z,8.10
2023-03-29T15:35:04.994Z,8.11
2023-03-29T15:37:32.130Z,8.08
2023-03-29T15:39:59.076Z,8.06
2023-03-29T15:42:26.352Z,8.03
2023-03-29T15:44:56.653Z,8.04
2023-03-29T15:47:24.074Z,8.00
2023-03-29T15:49:50.934Z,7.99
2023-03-29T15:52:17.723Z,7.97
2023-03-29T15:54:44.455Z,7.90
2023-03-29T15:57:15.206Z,7.91
2023-03-29T15:59:43.570Z,7.89
2023-03-29T16:02:17.545Z,7.89
2023-03-29T16:04:44.533Z,7.86
2023-03-29T16:07:17.094Z,7.83
2023-03-29T16:09:45.957Z,7.81
2023-03-29T16:12:13.543Z,7.78
2023-03-29T16:14:42.638Z,7.73
2023-03-29T16:17:09.919Z,7.69
2023-03-29T16:19:36.680Z,7.72
2023-03-29T16:22:07.378Z,7.71
2023-03-29T16:24:35.610Z,7.65
2023-03-29T16:27:02.836Z,7.70
2023-03-29T16:29:30.430Z,7.63
2023-03-29T16:31:57.658Z,7.68
2023-03-29T16:34:24.745Z,7.65
2023-03-29T16:36:53.053Z,7.62
2023-03-29T16:39:19.919Z,7.62
2023-03-29T16:41:48.852Z,7.59
2023-03-29T16:44:18.988Z,7.53
2023-03-29T16:46:47.310Z,7.57
2023-03-29T16:49:18.183Z,7.57
2023-03-29T16:51:47.204Z,7.51
2023-03-29T16:54:15.026Z,7.55
2023-03-29T16:56:41.874Z,7.51
2023-03-29T16:59:09.347Z,7.50
2023-03-29T17:01:36.585Z,7.49
2023-03-29T17:04:04.193Z,7.46
2023-03-29T17:06:32.674Z,7.47
2023-03-29T17:09:00.764Z,7.47
2023-03-29T17:11:28.331Z,7.40
2023-03-29T17:13:56.113Z,7.45
2023-03-29T17:16:23.035Z,7.44
2023-03-29T17:18:50.180Z,7.39
2023-03-29T17:21:17.129Z,7.42
2023-03-29T17:23:43.877Z,7.40
2023-03-29T17:26:11.899Z,7.37
2023-03-29T17:28:38.995Z,7.32
2023-03-29T17:31:09.735Z,7.26
2023-03-29T17:33:36.691Z,7.30
2023-03-29T17:36:05.856Z,7.27
2023-03-29T17:38:34.205Z,7.26
2023-03-29T17:41:02.784Z,7.26
2023-03-29T17:43:29.593Z,7.22
2023-03-29T17:45:56.693Z,7.19
2023-03-29T17:48:24.386Z,7.21
2023-03-29T17:50:51.508Z,7.21
2023-03-29T17:53:18.253Z,7.15
2023-03-29T17:55:45.038Z,7.17
2023-03-29T17:58:11.849Z,7.17
2023-03-29T18:00:38.721Z,7.17
2023-03-29T18:03:05.908Z,7.15
2023-03-29T18:05:34.309Z,7.14
2023-03-29T18:08:01.444Z,7.07
2023-03-29T18:10:28.291Z,7.12
2023-03-29T18:12:55.190Z,7.10
2023-03-29T18:15:22.042Z,7.09
2023-03-29T18:17:48.890Z,7.05
2023-03-29T18:20:16.218Z,7.09
2023-03-29T18:22:44.340Z,7.03
2023-03-29T18:25:11.314Z,7.11
2023-03-29T18:27:39.414Z,7.12
2023-03-29T18:30:08.663Z,7.14
2023-03-29T18:32:36.382Z,7.15
2023-03-29T18:35:03.542Z,7.17
2023-03-29T18:37:30.466Z,7.20
2023-03-29T18:39:57.213Z,7.24
2023-03-29T18:42:24.011Z,7.25
2023-03-29T18:44:51.282Z,7.22
2023-03-29T18:47:18.459Z,7.17
2023-03-29T18:49:45.648Z,7.18
2023-03-29T18:52:12.559Z,7.15
2023-03-29T18:54:39.461Z,7.21
2023-03-29T18:57:06.411Z,7.18
2023-03-29T18:59:35.909Z,7.18
2023-03-29T19:02:03.523Z,7.16
2023-03-29T19:04:30.525Z,7.12
2023-03-29T19:07:01.799Z,7.05
2023-03-29T19:09:28.855Z,7.07
2023-03-29T19:11:55.674Z,7.06
2023-03-29T19:14:25.239Z,7.03
2023-03-29T19:16:52.799Z,6.96
2023-03-29T19:19:21.387Z,7.01
2023-03-29T19:21:48.830Z,6.90
2023-03-29T19:24:16.594Z,6.95
2023-03-29T19:26:44.470Z,6.96
2023-03-29T19:29:11.765Z,6.89
2023-03-29T19:31:39.001Z,6.93
2023-03-29T19:34:07.110Z,6.94
2023-03-29T19:36:33.963Z,6.89
2023-03-29T19:39:01.244Z,6.88
2023-03-29T19:41:28.622Z,6.95
2023-03-29T19:43:55.535Z,6.93
2023-03-29T19:46:22.858Z,6.91
2023-03-29T19:48:51.707Z,6.87
2023-03-29T19:51:18.718Z,6.90
2023-03-29T19:53:45.418Z,6.82
2023-03-29T19:56:14.396Z,6.87
2023-03-29T19:58:41.356Z,6.81
2023-03-29T20:01:08.122Z,6.88
2023-03-29T20:03:36.158Z,6.88
2023-03-29T20:06:03.462Z,6.87
2023-03-29T20:08:30.545Z,6.82
2023-03-29T20:11:03.556Z,6.86
2023-03-29T20:13:38.063Z,6.84
2023-03-29T20:16:16.291Z,6.85
2023-03-29T20:18:46.676Z,6.87
2023-03-29T20:21:16.484Z,6.88
2023-03-29T20:23:44.215Z,6.90
2023-03-29T20:26:11.195Z,6.90
2023-03-29T20:28:38.171Z,6.94
2023-03-29T20:31:06.862Z,6.96
2023-03-29T20:33:33.840Z,6.93
2023-03-29T20:36:01.014Z,6.95
2023-03-29T20:38:28.020Z,6.89
2023-03-29T20:40:55.439Z,6.82
2023-03-29T20:43:22.381Z,6.85
2023-03-29T20:45:52.622Z,6.88
2023-03-29T20:48:23.220Z,6.81
2023-03-29T20:50:50.973Z,6.84
2023-03-29T20:53:18.363Z,6.79
2023-03-29T20:55:45.410Z,6.86
2023-03-29T20:58:12.310Z,6.82
2023-03-29T21:00:40.445Z,6.84
2023-03-29T21:03:08.627Z,6.86
2023-03-29T21:05:35.786Z,6.86
2023-03-29T21:08:04.505Z,6.83
2023-03-29T21:10:31.950Z,6.84
2023-03-29T21:13:02.597Z,6.78
2023-03-29T21:15:30.665Z,6.87
2023-03-29T21:17:58.376Z,6.89
2023-03-29T21:20:25.458Z,6.84
2023-03-29T21:22:52.198Z,6.90
2023-03-29T21:25:19.376Z,6.83
2023-03-29T21:27:46.301Z,6.86
2023-03-29T21:30:13.322Z,6.87
2023-03-29T21:32:40.155Z,6.83
2023-03-29T21:35:07.578Z,6.88
2023-03-29T21:37:34.383Z,6.86
2023-03-29T21:40:05.505Z,6.90
2023-03-29T21:42:33.407Z,6.89
2023-03-29T21:45:01.719Z,6.88
2023-03-29T21:47:28.524Z,6.79
2023-03-29T21:49:55.362Z,6.78
2023-03-29T21:52:22.461Z,6.80
2023-03-29T21:54:49.207Z,6.76
2023-03-29T21:57:16.291Z,6.79
2023-03-29T21:59:43.237Z,6.81
2023-03-29T22:02:10.282Z,6.75
2023-03-29T22:04:37.785Z,6.76
2023-03-29T22:07:06.018Z,6.75
2023-03-29T22:09:35.002Z,6.75
2023-03-29T22:12:02.972Z,6.73
2023-03-29T22:14:34.840Z,6.72
2023-03-29T22:17:05.746Z,6.71
2023-03-29T22:19:34.789Z,6.70
2023-03-29T22:22:01.690Z,6.61
2023-03-29T22:24:29.163Z,6.64
2023-03-29T22:26:56.200Z,6.62
2023-03-29T22:29:23.136Z,6.61
2023-03-29T22:31:50.553Z,6.60
2023-03-29T22:34:17.495Z,6.60
2023-03-29T22:36:44.278Z,6.58
2023-03-29T22:39:12.057Z,6.63
2023-03-29T22:41:39.065Z,6.60
2023-03-29T22:44:05.936Z,6.60
2023-03-29T22:46:32.796Z,6.52
2023-03-29T22:48:59.704Z,6.53
2023-03-29T22:51:27.264Z,6.46
2023-03-29T22:53:54.070Z,6.48
2023-03-29T22:56:22.157Z,6.40
2023-03-29T22:58:49.209Z,6.44
2023-03-29T23:01:16.257Z,6.43
2023-03-29T23:03:43.214Z,6.37
2023-03-29T23:06:10.282Z,6.38
2023-03-29T23:08:37.208Z,6.38
2023-03-29T23:11:05.183Z,6.33
2023-03-29T23:13:33.636Z,6.31
2023-03-29T23:16:02.459Z,6.26
2023-03-29T23:18:31.727Z,6.19
2023-03-29T23:20:59.065Z,6.19
2023-03-29T23:23:27.578Z,6.12
2023-03-29T23:25:55.851Z,6.04
2023-03-29T23:28:30.225Z,6.07
2023-03-29T23:31:18.502Z,6.02
2023-03-29T23:33:45.729Z,5.98
2023-03-29T23:36:15.328Z,5.92
2023-03-29T23:38:44.606Z,5.84
2023-03-29T23:41:12.931Z,5.78
2023-03-29T23:43:42.014Z,5.73
2023-03-29T23:46:14.244Z,5.68
2023-03-29T23:48:49.099Z,5.65
2023-03-29T23:51:23.258Z,5.55
2023-03-29T23:53:50.718Z,5.54
2023-03-29T23:56:17.715Z,5.46
2023-03-29T23:58:44.887Z,5.30
